Time;durP1;ratioP1;P1;durP2;ratioP2;P2;SDS_P1;SDS_P2;PMS_P1;PMS_P2;Temp;Humidity;BMP_temperature;BMP_pressure;BME280_temperature;BME280_humidity;BME280_pressure;Samples;Min_cycle;Max_cycle;Signal;HPM_P1;HPM_P2
2023/07/18 00:00:17;;;;;;;28.92;3.15;;;45.20;34.30;;;;;;4866690;29;20113;-70
2023/07/18 00:02:47;;;;;;;10.43;2.63;;;45.20;34.10;;;;;;4870022;29;20025;-66
2023/07/18 00:05:13;;;;;;;9.00;1.80;;;45.20;33.90;;;;;;4868269;29;20041;-71
2023/07/18 00:07:41;;;;;;;8.27;2.10;;;45.10;33.80;;;;;;4868340;29;20036;-70
2023/07/18 00:10:11;;;;;;;6.22;1.85;;;45.00;33.50;;;;;;4866879;29;20040;-69
2023/07/18 00:12:39;;;;;;;7.10;2.10;;;45.10;33.30;;;;;;4863683;29;20025;-68
2023/07/18 00:15:07;;;;;;;12.68;2.38;;;45.10;33.70;;;;;;4864714;29;20076;-69
2023/07/18 00:17:34;;;;;;;13.70;4.45;;;45.00;33.90;;;;;;4872323;29;20108;-68
2023/07/18 00:20:01;;;;;;;16.20;7.95;;;44.90;34.10;;;;;;4866355;29;20021;-71
2023/07/18 00:22:28;;;;;;;17.35;2.58;;;44.90;34.40;;;;;;4869457;29;20096;-70
2023/07/18 00:24:54;;;;;;;9.05;2.20;;;44.80;33.90;;;;;;4868765;29;20059;-67
2023/07/18 00:27:20;;;;;;;9.43;2.72;;;44.70;34.20;;;;;;4871238;29;20036;-68
2023/07/18 00:29:47;;;;;;;8.57;1.92;;;44.70;34.60;;;;;;4867728;29;20128;-69
2023/07/18 00:32:13;;;;;;;7.20;1.80;;;44.60;35.00;;;;;;4873543;29;20020;-66
2023/07/18 00:34:41;;;;;;;11.77;2.42;;;44.60;34.50;;;;;;4874325;29;20014;-67
2023/07/18 00:37:07;;;;;;;6.97;2.50;;;44.50;34.80;;;;;;4867058;29;20480;-68
2023/07/18 00:39:34;;;;;;;9.43;2.17;;;44.40;35.00;;;;;;4870339;29;20100;-68
2023/07/18 00:42:00;;;;;;;7.28;2.13;;;44.40;35.70;;;;;;4869694;29;20017;-67
2023/07/18 00:44:27;;;;;;;7.15;2.17;;;44.30;35.20;;;;;;4871325;29;20024;-71
2023/07/18 00:46:54;;;;;;;10.20;2.42;;;44.30;35.10;;;;;;4869597;29;20031;-72
2023/07/18 00:49:20;;;;;;;10.88;2.17;;;44.30;35.60;;;;;;4866654;29;20453;-67
2023/07/18 00:51:47;;;;;;;9.27;2.13;;;44.20;35.40;;;;;;4869196;29;20016;-69
2023/07/18 00:54:13;;;;;;;10.02;2.28;;;44.30;35.90;;;;;;4868090;29;20025;-70
2023/07/18 00:56:40;;;;;;;11.00;2.20;;;44.20;35.40;;;;;;4869169;29;20024;-70
2023/07/18 00:59:07;;;;;;;7.80;2.40;;;44.10;34.90;;;;;;4866151;29;20025;-70
2023/07/18 01:01:34;;;;;;;8.77;2.85;;;44.10;34.80;;;;;;4871894;29;20052;-68
2023/07/18 01:04:00;;;;;;;11.63;2.15;;;44.10;35.30;;;;;;4867579;29;20049;-70
2023/07/18 01:06:27;;;;;;;15.63;2.70;;;44.10;35.90;;;;;;4871354;29;20478;-69
2023/07/18 01:08:53;;;;;;;10.85;1.95;;;43.90;35.00;;;;;;4870328;29;20033;-68
2023/07/18 01:11:21;;;;;;;16.13;2.13;;;43.90;35.30;;;;;;4871053;29;20021;-68
2023/07/18 01:13:47;;;;;;;6.57;2.13;;;43.80;35.20;;;;;;4871052;29;20705;-68
2023/07/18 01:16:14;;;;;;;12.32;2.00;;;43.80;35.30;;;;;;4872401;29;20096;-71
2023/07/18 01:18:40;;;;;;;15.07;2.30;;;43.80;35.20;;;;;;4868935;29;20024;-72
2023/07/18 01:21:09;;;;;;;11.77;2.00;;;43.70;35.30;;;;;;4872755;29;20026;-70
2023/07/18 01:23:36;;;;;;;13.20;2.40;;;43.70;35.40;;;;;;4874393;29;20056;-72
2023/07/18 01:26:02;;;;;;;10.98;2.10;;;43.60;35.20;;;;;;4871949;29;20036;-70
2023/07/18 01:28:29;;;;;;;17.50;2.47;;;43.60;35.60;;;;;;4872759;29;20068;-68
2023/07/18 01:30:56;;;;;;;18.65;2.60;;;43.50;35.40;;;;;;4871250;29;20036;-69
2023/07/18 01:33:22;;;;;;;10.48;2.50;;;43.50;35.70;;;;;;4872488;29;20049;-67
2023/07/18 01:35:49;;;;;;;11.05;2.30;;;43.40;35.00;;;;;;4874849;29;20581;-69
2023/07/18 01:38:15;;;;;;;9.48;2.05;;;43.30;35.30;;;;;;4872564;29;20016;-69
2023/07/18 01:40:42;;;;;;;17.60;3.15;;;43.30;35.40;;;;;;4872198;29;20423;-68
2023/07/18 01:43:09;;;;;;;9.38;2.15;;;43.20;35.60;;;;;;4871582;29;20096;-72
2023/07/18 01:45:37;;;;;;;11.70;2.35;;;43.10;35.30;;;;;;4873047;29;20501;-68
2023/07/18 01:48:03;;;;;;;14.50;2.40;;;43.10;35.20;;;;;;4874449;29;20037;-68
2023/07/18 01:50:30;;;;;;;13.02;2.38;;;43.10;35.70;;;;;;4866415;29;20047;-67
2023/07/18 01:52:56;;;;;;;16.60;2.30;;;43.10;36.40;;;;;;4873903;29;20048;-68
2023/07/18 01:55:23;;;;;;;8.30;2.40;;;43.40;36.60;;;;;;4868793;29;20017;-67
2023/07/18 01:57:50;;;;;;;13.60;2.45;;;43.80;35.40;;;;;;4870731;29;20021;-67
2023/07/18 02:00:19;;;;;;;19.48;3.03;;;43.90;35.20;;;;;;4872570;29;20017;-67
2023/07/18 02:02:48;;;;;;;15.77;2.55;;;43.80;36.00;;;;;;4869108;29;20040;-67
2023/07/18 02:05:22;;;;;;;17.90;2.78;;;43.30;36.40;;;;;;4869608;29;20040;-68
2023/07/18 02:07:49;;;;;;;21.90;3.05;;;42.90;37.00;;;;;;4869950;29;20090;-69
2023/07/18 02:10:20;;;;;;;6.53;2.20;;;42.70;37.40;;;;;;4873136;29;20035;-66
2023/07/18 02:12:50;;;;;;;16.42;2.42;;;42.50;37.90;;;;;;4869507;29;20017;-69
2023/07/18 02:15:17;;;;;;;14.88;2.90;;;42.30;38.40;;;;;;4870077;29;20467;-69
2023/07/18 02:17:43;;;;;;;13.70;2.33;;;42.20;38.50;;;;;;4872502;29;20096;-68
2023/07/18 02:20:14;;;;;;;12.45;2.20;;;42.20;38.40;;;;;;4863288;29;20061;-68
2023/07/18 02:22:42;;;;;;;10.15;2.25;;;42.10;39.00;;;;;;4871572;29;20021;-67
2023/07/18 02:25:10;;;;;;;16.77;2.50;;;41.90;39.20;;;;;;4871644;29;20039;-65
2023/07/18 02:27:39;;;;;;;13.63;2.70;;;41.90;39.70;;;;;;4869730;29;20025;-67
2023/07/18 02:30:09;;;;;;;13.13;2.50;;;41.80;40.10;;;;;;4869714;29;20060;-69
2023/07/18 02:32:36;;;;;;;19.33;3.85;;;41.70;40.40;;;;;;4867404;29;20435;-67
2023/07/18 02:35:02;;;;;;;30.70;4.53;;;41.60;40.70;;;;;;4870773;29;20175;-68
2023/07/18 02:37:29;;;;;;;13.07;3.10;;;41.40;40.80;;;;;;4871672;29;20017;-68
2023/07/18 02:39:55;;;;;;;11.27;2.80;;;41.20;40.80;;;;;;4871478;29;20057;-67
2023/07/18 02:42:21;;;;;;;14.82;2.90;;;41.20;40.90;;;;;;4869605;29;20053;-67
2023/07/18 02:44:48;;;;;;;15.95;2.92;;;41.10;41.00;;;;;;4870021;29;20053;-69
2023/07/18 02:47:15;;;;;;;16.90;4.10;;;41.00;40.30;;;;;;4875676;29;20021;-68
2023/07/18 02:49:41;;;;;;;14.27;3.45;;;40.90;40.20;;;;;;4866197;29;20144;-66
2023/07/18 02:52:08;;;;;;;14.60;2.70;;;40.80;40.10;;;;;;4870119;29;20035;-70
2023/07/18 02:54:35;;;;;;;17.00;3.50;;;40.80;39.90;;;;;;4870519;29;20017;-68
2023/07/18 02:57:01;;;;;;;11.68;3.25;;;40.70;40.20;;;;;;4869583;29;20017;-70
2023/07/18 02:59:27;;;;;;;13.32;3.08;;;40.70;39.60;;;;;;4870802;29;20032;-67
2023/07/18 03:01:54;;;;;;;23.75;3.60;;;40.60;39.80;;;;;;4870101;29;20490;-68
2023/07/18 03:04:30;;;;;;;15.55;3.08;;;40.60;39.80;;;;;;4868512;29;20459;-66
2023/07/18 03:06:58;;;;;;;21.52;3.00;;;40.50;39.90;;;;;;4869909;29;20093;-65
2023/07/18 03:09:24;;;;;;;22.35;2.95;;;40.50;39.90;;;;;;4869276;29;20042;-66
2023/07/18 03:11:50;;;;;;;16.92;2.88;;;40.50;40.40;;;;;;4868220;29;20016;-69
2023/07/18 03:14:18;;;;;;;12.85;2.35;;;40.50;39.80;;;;;;4873193;29;20025;-69
2023/07/18 03:19:20;;;;;;;14.68;2.50;;;40.50;40.90;;;;;;5298968;23;20052;-68
2023/07/18 03:21:46;;;;;;;21.63;2.78;;;40.40;40.70;;;;;;4892248;29;20041;-68
2023/07/18 03:24:12;;;;;;;11.52;2.10;;;40.40;40.90;;;;;;4893450;29;20353;-67
2023/07/18 03:26:39;;;;;;;9.73;2.65;;;40.40;41.50;;;;;;4899422;29;20351;-67
2023/07/18 03:29:06;;;;;;;10.27;2.72;;;40.30;41.90;;;;;;4896579;29;20024;-67
2023/07/18 03:31:33;;;;;;;20.65;2.63;;;40.20;42.00;;;;;;4892246;29;20508;-68
2023/07/18 03:34:00;;;;;;;11.77;2.72;;;40.20;41.90;;;;;;4897323;29;20099;-68
2023/07/18 03:36:27;;;;;;;16.38;2.92;;;40.20;42.30;;;;;;4896458;29;20076;-67
2023/07/18 03:38:54;;;;;;;17.25;3.03;;;40.10;42.20;;;;;;4903769;29;20395;-68
2023/07/18 03:41:20;;;;;;;12.35;2.72;;;40.00;42.20;;;;;;4903438;29;20113;-67
2023/07/18 03:43:47;;;;;;;8.75;3.50;;;40.10;42.40;;;;;;4899575;29;20024;-68
2023/07/18 03:46:13;;;;;;;19.65;3.85;;;40.00;42.60;;;;;;4894131;29;20049;-68
2023/07/18 03:48:39;;;;;;;9.68;3.25;;;39.90;43.10;;;;;;4895861;29;20136;-69
2023/07/18 03:51:06;;;;;;;16.65;3.58;;;39.90;43.60;;;;;;4895018;29;20032;-67
2023/07/18 03:53:32;;;;;;;17.48;3.90;;;39.90;43.10;;;;;;4890693;29;20021;-67
2023/07/18 03:56:03;;;;;;;13.40;2.88;;;39.80;43.30;;;;;;4898787;29;20091;-69
2023/07/18 03:58:30;;;;;;;15.40;2.97;;;39.70;43.00;;;;;;4898240;29;20036;-67
2023/07/18 04:00:57;;;;;;;13.20;2.90;;;39.60;42.80;;;;;;4891574;29;20104;-69
2023/07/18 04:03:23;;;;;;;15.32;2.70;;;39.60;43.10;;;;;;4898131;29;20024;-68
2023/07/18 04:05:51;;;;;;;7.00;3.20;;;39.60;43.10;;;;;;4898019;29;20028;-69
2023/07/18 04:08:18;;;;;;;13.52;3.40;;;39.60;42.90;;;;;;4896744;29;20030;-69
2023/07/18 04:10:45;;;;;;;17.63;3.50;;;39.50;43.10;;;;;;4894785;29;20493;-69
2023/07/18 04:13:11;;;;;;;10.88;3.00;;;39.50;43.20;;;;;;4894415;29;20426;-69
2023/07/18 04:15:38;;;;;;;16.95;3.17;;;39.50;43.00;;;;;;4899559;29;20076;-67
2023/07/18 04:18:04;;;;;;;15.35;3.00;;;39.50;43.20;;;;;;4897341;29;20031;-68
2023/07/18 04:20:31;;;;;;;13.77;3.13;;;39.50;43.60;;;;;;4892122;29;20021;-69
2023/07/18 04:22:57;;;;;;;14.65;3.33;;;39.30;43.90;;;;;;4894193;29;20020;-70
2023/07/18 04:25:24;;;;;;;13.68;3.78;;;39.30;44.20;;;;;;4896172;29;20031;-68
2023/07/18 04:27:50;;;;;;;11.95;3.40;;;39.20;44.50;;;;;;4900820;29;20054;-68
2023/07/18 04:30:17;;;;;;;8.82;3.30;;;39.20;44.70;;;;;;4892502;29;20084;-69
2023/07/18 04:32:44;;;;;;;10.65;2.92;;;39.10;44.60;;;;;;4897135;29;20078;-68
2023/07/18 04:35:10;;;;;;;10.63;3.38;;;39.10;44.50;;;;;;4891743;29;20389;-68
2023/07/18 04:37:36;;;;;;;14.85;3.47;;;39.00;44.40;;;;;;4896852;29;20023;-69
2023/07/18 04:40:08;;;;;;;14.65;3.55;;;39.00;44.60;;;;;;4893615;29;20377;-70
2023/07/18 04:42:35;;;;;;;15.68;3.50;;;39.00;44.60;;;;;;4891112;29;20481;-69
2023/07/18 04:45:01;;;;;;;17.60;3.58;;;38.90;45.00;;;;;;4899878;29;20107;-69
2023/07/18 04:47:28;;;;;;;17.88;3.90;;;38.90;44.80;;;;;;4900424;29;20473;-68
2023/07/18 04:49:55;;;;;;;19.00;4.03;;;38.90;44.90;;;;;;4900786;29;20024;-70
2023/07/18 04:52:22;;;;;;;22.35;4.60;;;38.80;44.80;;;;;;4904012;29;20062;-70
2023/07/18 04:54:48;;;;;;;23.30;3.45;;;38.80;45.30;;;;;;4896090;29;20032;-71
2023/07/18 04:57:17;;;;;;;13.55;2.95;;;38.80;45.40;;;;;;4894930;29;20512;-68
2023/07/18 04:59:43;;;;;;;8.43;2.80;;;38.70;45.30;;;;;;4894638;29;20044;-70
2023/07/18 05:02:10;;;;;;;13.43;3.33;;;38.70;45.30;;;;;;4895283;29;20084;-68
2023/07/18 05:04:36;;;;;;;21.05;3.55;;;38.60;45.60;;;;;;4897503;29;20898;-70
2023/07/18 05:07:03;;;;;;;29.75;5.20;;;38.60;45.70;;;;;;4895507;29;20072;-69
2023/07/18 05:09:30;;;;;;;35.35;5.10;;;38.50;47.00;;;;;;4903356;29;20048;-68
2023/07/18 05:11:56;;;;;;;21.95;4.30;;;38.50;47.50;;;;;;4896306;29;20115;-69
2023/07/18 05:14:23;;;;;;;25.58;5.25;;;38.30;47.50;;;;;;4895098;29;20519;-70
2023/07/18 05:16:49;;;;;;;19.20;4.53;;;38.30;47.60;;;;;;4893415;29;20028;-68
2023/07/18 05:19:15;;;;;;;24.05;5.20;;;38.30;48.10;;;;;;4896500;29;20028;-68
2023/07/18 05:21:42;;;;;;;23.08;5.03;;;38.20;47.70;;;;;;4895950;29;20122;-68
2023/07/18 05:24:08;;;;;;;23.60;4.72;;;38.20;48.10;;;;;;4896233;29;20024;-70
2023/07/18 05:26:34;;;;;;;22.88;4.55;;;38.10;48.10;;;;;;4894991;29;20024;-69
2023/07/18 05:29:01;;;;;;;25.58;4.88;;;38.10;48.10;;;;;;4901197;29;20646;-68
2023/07/18 05:31:27;;;;;;;31.63;5.07;;;37.90;48.20;;;;;;4902004;29;20047;-70
2023/07/18 05:33:54;;;;;;;29.20;4.97;;;37.80;48.70;;;;;;4894953;29;20024;-69
2023/07/18 05:36:20;;;;;;;23.80;4.00;;;37.80;48.40;;;;;;4894204;29;20495;-68
2023/07/18 05:38:46;;;;;;;23.15;4.28;;;37.80;48.80;;;;;;4897331;29;20058;-69
2023/07/18 05:41:13;;;;;;;25.08;4.65;;;37.80;48.80;;;;;;4895994;29;20043;-67
2023/07/18 05:43:39;;;;;;;21.85;5.55;;;37.70;48.80;;;;;;4893654;29;20176;-67
2023/07/18 05:46:06;;;;;;;29.40;6.60;;;37.60;48.70;;;;;;4896197;29;20048;-69
2023/07/18 05:48:32;;;;;;;25.02;4.45;;;37.60;48.90;;;;;;4900471;29;20075;-68
2023/07/18 05:51:00;;;;;;;29.70;4.85;;;37.60;49.10;;;;;;4892886;29;20070;-70
2023/07/18 05:53:27;;;;;;;29.05;5.07;;;37.50;49.10;;;;;;4900926;29;20525;-68
2023/07/18 05:55:53;;;;;;;33.22;5.63;;;37.50;48.90;;;;;;4898389;29;20073;-68
2023/07/18 05:58:20;;;;;;;19.33;5.07;;;37.40;48.70;;;;;;4899780;29;20057;-67
2023/07/18 06:00:46;;;;;;;24.35;5.25;;;37.40;49.20;;;;;;4897669;29;20115;-69
2023/07/18 06:03:13;;;;;;;24.58;5.38;;;37.40;49.50;;;;;;4899348;29;20472;-69
2023/07/18 06:05:39;;;;;;;29.23;5.22;;;37.30;50.20;;;;;;4894296;29;20051;-68
2023/07/18 06:08:07;;;;;;;29.20;5.70;;;37.30;50.40;;;;;;4896625;29;20108;-70
2023/07/18 06:10:33;;;;;;;27.40;5.35;;;37.20;50.30;;;;;;4897134;29;20485;-70
2023/07/18 06:13:00;;;;;;;30.08;5.55;;;37.10;50.40;;;;;;4895889;29;20064;-67
2023/07/18 06:15:26;;;;;;;24.08;5.75;;;37.10;50.70;;;;;;4901032;29;20052;-68
2023/07/18 06:17:52;;;;;;;24.27;5.90;;;36.90;50.90;;;;;;4892499;29;20402;-68
2023/07/18 06:20:19;;;;;;;31.48;6.50;;;37.00;51.10;;;;;;4893376;29;20104;-68
2023/07/18 06:22:47;;;;;;;23.05;5.95;;;36.90;51.10;;;;;;4893694;29;20066;-70
2023/07/18 06:25:15;;;;;;;24.52;5.40;;;36.90;51.10;;;;;;4891558;29;20146;-70
2023/07/18 06:27:41;;;;;;;21.17;4.85;;;36.90;51.30;;;;;;4894823;29;20056;-70
2023/07/18 06:30:08;;;;;;;21.25;4.72;;;36.80;50.90;;;;;;4898989;29;20060;-68
2023/07/18 06:32:35;;;;;;;21.58;4.38;;;36.80;51.10;;;;;;4895626;29;20062;-68
2023/07/18 06:35:05;;;;;;;16.85;4.57;;;36.70;51.00;;;;;;4894699;29;20408;-69
2023/07/18 06:37:31;;;;;;;17.90;4.85;;;36.70;50.70;;;;;;4890128;29;20062;-70
2023/07/18 06:39:57;;;;;;;17.00;4.10;;;36.60;50.20;;;;;;4892680;29;20531;-71
2023/07/18 06:42:24;;;;;;;19.17;4.10;;;36.60;50.80;;;;;;4895498;29;20057;-68
2023/07/18 06:44:51;;;;;;;17.73;4.63;;;36.60;50.10;;;;;;4890295;29;20153;-68
2023/07/18 06:47:17;;;;;;;27.38;5.38;;;36.50;49.80;;;;;;4895570;29;20049;-69
2023/07/18 06:49:43;;;;;;;22.10;4.82;;;36.50;49.90;;;;;;4893365;29;20058;-69
2023/07/18 06:52:10;;;;;;;21.67;5.22;;;36.40;49.60;;;;;;4898240;29;20545;-66
2023/07/18 06:54:36;;;;;;;22.67;4.38;;;36.40;50.20;;;;;;4890190;29;20050;-66
2023/07/18 06:57:03;;;;;;;23.27;4.50;;;36.40;49.70;;;;;;4896648;29;20574;-66
2023/07/18 06:59:29;;;;;;;17.42;4.70;;;36.30;49.50;;;;;;4892427;29;20148;-67
2023/07/18 07:01:56;;;;;;;32.60;4.95;;;36.40;49.70;;;;;;4893403;29;20103;-67
2023/07/18 07:04:22;;;;;;;16.75;4.20;;;36.30;49.80;;;;;;4893977;29;20060;-66
2023/07/18 07:06:49;;;;;;;14.63;4.25;;;36.30;50.30;;;;;;4892702;29;20543;-66
2023/07/18 07:09:15;;;;;;;12.27;3.70;;;36.20;51.20;;;;;;4905434;29;20060;-67
2023/07/18 07:11:43;;;;;;;12.57;4.05;;;36.10;51.70;;;;;;4894299;29;20057;-67
2023/07/18 07:14:11;;;;;;;11.25;3.63;;;36.00;52.10;;;;;;4899504;29;20071;-66
2023/07/18 07:16:37;;;;;;;12.13;3.38;;;36.00;52.30;;;;;;4894366;29;20134;-66
2023/07/18 07:19:05;;;;;;;10.52;3.13;;;35.90;52.40;;;;;;4892936;29;20508;-66
2023/07/18 07:21:32;;;;;;;12.68;3.30;;;35.80;52.70;;;;;;4893696;29;20082;-67
2023/07/18 07:23:58;;;;;;;16.17;3.78;;;35.90;52.90;;;;;;4891946;29;20518;-68
2023/07/18 07:26:25;;;;;;;20.75;3.47;;;35.80;52.90;;;;;;4893104;29;20050;-66
2023/07/18 07:28:51;;;;;;;12.68;3.30;;;35.80;53.00;;;;;;4894559;29;20062;-68
2023/07/18 07:31:18;;;;;;;12.30;3.35;;;35.90;53.10;;;;;;4891610;29;20159;-66
2023/07/18 07:33:44;;;;;;;10.07;2.72;;;35.90;53.00;;;;;;4896077;29;20065;-66
2023/07/18 07:36:11;;;;;;;11.63;2.97;;;35.90;53.70;;;;;;4893179;29;20061;-66
2023/07/18 07:38:37;;;;;;;11.82;4.07;;;35.80;53.00;;;;;;4894324;29;20537;-65
2023/07/18 07:41:05;;;;;;;11.98;3.50;;;35.80;53.20;;;;;;4895231;29;20053;-65
2023/07/18 07:43:31;;;;;;;17.92;3.70;;;35.70;53.90;;;;;;4893554;29;20065;-66
2023/07/18 07:45:58;;;;;;;9.57;3.22;;;35.70;53.30;;;;;;4893615;29;20061;-67
2023/07/18 07:48:24;;;;;;;14.38;3.13;;;35.70;53.10;;;;;;4896702;29;20063;-66
2023/07/18 07:50:51;;;;;;;11.18;3.72;;;35.70;53.10;;;;;;4896351;29;20123;-67
2023/07/18 07:53:17;;;;;;;8.43;3.15;;;35.60;53.30;;;;;;4894880;29;20056;-67
2023/07/18 07:55:43;;;;;;;10.27;3.38;;;35.60;53.20;;;;;;4890694;29;20666;-67
2023/07/18 07:58:10;;;;;;;13.35;3.83;;;35.60;54.00;;;;;;4894250;29;20417;-65
2023/07/18 08:00:36;;;;;;;14.65;4.53;;;35.60;53.50;;;;;;4891557;29;20143;-66
2023/07/18 08:03:02;;;;;;;15.70;3.28;;;35.60;53.20;;;;;;4893473;29;20052;-68
2023/07/18 08:05:29;;;;;;;9.93;3.30;;;35.40;53.10;;;;;;4895297;29;20092;-67
2023/07/18 08:07:55;;;;;;;15.43;3.17;;;35.40;53.30;;;;;;4894896;29;20067;-69
2023/07/18 08:10:22;;;;;;;8.10;2.70;;;35.40;53.60;;;;;;4894058;29;20061;-69
2023/07/18 08:12:48;;;;;;;9.32;2.90;;;35.40;54.30;;;;;;4893175;29;20154;-67
2023/07/18 08:15:14;;;;;;;10.75;3.13;;;35.40;54.20;;;;;;4893021;29;20419;-68
2023/07/18 08:17:41;;;;;;;12.82;3.05;;;35.40;54.00;;;;;;4896463;29;20124;-70
2023/07/18 08:20:08;;;;;;;10.18;3.17;;;35.40;54.10;;;;;;4892295;29;20127;-73
2023/07/18 08:22:35;;;;;;;12.52;3.45;;;35.40;54.20;;;;;;4895253;29;20242;-73
2023/07/18 08:25:01;;;;;;;8.50;3.17;;;35.40;54.30;;;;;;4894849;29;20067;-72
2023/07/18 08:27:28;;;;;;;9.63;3.75;;;35.40;53.90;;;;;;4895091;29;20099;-73
2023/07/18 08:29:55;;;;;;;14.45;3.70;;;35.40;54.10;;;;;;4898032;29;20490;-72
2023/07/18 08:32:21;;;;;;;13.75;3.17;;;35.40;54.10;;;;;;4898784;29;20079;-71
2023/07/18 08:34:47;;;;;;;9.82;3.33;;;35.40;54.00;;;;;;4904615;29;20166;-72
2023/07/18 08:37:14;;;;;;;8.98;3.60;;;35.40;54.60;;;;;;4898997;29;20065;-73
2023/07/18 08:39:40;;;;;;;12.13;3.55;;;35.40;53.80;;;;;;4896133;29;20063;-71
2023/07/18 08:42:07;;;;;;;14.25;3.63;;;35.40;53.50;;;;;;4895647;29;20057;-73
2023/07/18 08:44:35;;;;;;;11.57;3.50;;;35.40;53.00;;;;;;4897863;29;20080;-71
2023/07/18 08:47:05;;;;;;;12.88;3.30;;;35.40;53.30;;;;;;4902709;29;20399;-71
2023/07/18 08:49:35;;;;;;;10.20;3.65;;;35.40;54.10;;;;;;4895227;29;20552;-71
2023/07/18 08:52:01;;;;;;;10.68;3.42;;;35.40;54.30;;;;;;4896550;29;20078;-72
2023/07/18 08:54:28;;;;;;;13.23;3.35;;;35.40;54.90;;;;;;4902646;29;20089;-72
2023/07/18 08:56:56;;;;;;;22.75;4.07;;;35.30;55.20;;;;;;4897079;29;20080;-70
2023/07/18 08:59:23;;;;;;;22.38;3.72;;;35.30;55.20;;;;;;4896049;29;20048;-71
2023/07/18 09:01:51;;;;;;;14.55;3.95;;;35.30;55.50;;;;;;4894773;29;20056;-70
2023/07/18 09:04:18;;;;;;;23.00;4.22;;;35.30;55.70;;;;;;4896867;29;20107;-72
2023/07/18 09:06:57;;;;;;;19.83;4.18;;;35.20;55.10;;;;;;4902702;29;20093;-73
2023/07/18 09:09:24;;;;;;;33.17;5.13;;;35.20;55.20;;;;;;4895553;29;20080;-72
2023/07/18 09:12:01;;;;;;;26.05;5.10;;;35.20;54.80;;;;;;4893569;29;20062;-73
2023/07/18 09:14:30;;;;;;;27.10;4.72;;;35.20;55.00;;;;;;4898690;29;20059;-72
2023/07/18 09:16:59;;;;;;;26.65;5.72;;;35.10;55.20;;;;;;4902151;29;20064;-72
2023/07/18 09:19:39;;;;;;;23.00;4.88;;;35.10;55.20;;;;;;4901407;29;20059;-71
2023/07/18 09:22:11;;;;;;;36.25;5.47;;;35.00;55.40;;;;;;4909275;29;20075;-73
2023/07/18 09:24:39;;;;;;;22.30;5.05;;;35.00;55.70;;;;;;4898752;29;20048;-73
2023/07/18 09:27:15;;;;;;;21.77;5.80;;;35.00;55.50;;;;;;4895459;29;20062;-70
2023/07/18 09:29:46;;;;;;;24.73;4.55;;;34.90;55.80;;;;;;4898975;29;20077;-74
2023/07/18 09:32:23;;;;;;;21.00;4.68;;;34.90;55.80;;;;;;4896453;29;20079;-74
2023/07/18 09:34:54;;;;;;;27.50;6.00;;;34.90;55.80;;;;;;4897189;29;20059;-73
2023/07/18 09:37:21;;;;;;;25.42;5.65;;;34.80;56.10;;;;;;4900250;29;20112;-72
2023/07/18 09:39:48;;;;;;;20.08;5.10;;;34.80;56.50;;;;;;4901255;29;20057;-74
2023/07/18 09:42:19;;;;;;;17.85;4.93;;;34.70;57.10;;;;;;4898197;29;20146;-71
2023/07/18 09:44:49;;;;;;;20.73;5.45;;;34.70;57.30;;;;;;4896399;29;20086;-72
2023/07/18 09:47:16;;;;;;;18.17;4.80;;;34.60;57.20;;;;;;4899790;29;20162;-71
2023/07/18 09:49:44;;;;;;;22.95;5.43;;;34.70;57.70;;;;;;4896383;29;20491;-73
2023/07/18 09:52:11;;;;;;;13.73;4.78;;;34.70;57.90;;;;;;4897285;29;20161;-72
2023/07/18 09:54:39;;;;;;;18.83;5.22;;;34.60;57.80;;;;;;4901011;29;20074;-72
2023/07/18 09:57:10;;;;;;;17.30;5.00;;;34.60;57.70;;;;;;4895532;29;20065;-72
2023/07/18 09:59:39;;;;;;;19.02;5.13;;;34.60;57.70;;;;;;4901106;29;20147;-72
2023/07/18 10:02:08;;;;;;;21.42;5.43;;;34.60;57.70;;;;;;4891981;29;20142;-72
2023/07/18 10:04:35;;;;;;;19.65;5.70;;;34.60;57.80;;;;;;4898903;29;20087;-71
2023/07/18 10:07:03;;;;;;;21.63;5.63;;;34.60;58.10;;;;;;4895010;29;20057;-71
2023/07/18 10:09:30;;;;;;;23.30;6.05;;;34.60;58.40;;;;;;4899519;29;20083;-73
2023/07/18 10:12:00;;;;;;;16.30;6.00;;;34.60;58.40;;;;;;4898366;29;20729;-73
2023/07/18 10:14:48;;;;;;;26.55;7.07;;;34.50;58.10;;;;;;4897543;29;20210;-71
2023/07/18 10:17:26;;;;;;;17.35;6.43;;;34.50;58.20;;;;;;4899008;29;20140;-71
2023/07/18 10:19:53;;;;;;;23.85;6.90;;;34.50;58.10;;;;;;4897361;29;20552;-71
2023/07/18 10:22:29;;;;;;;27.67;7.18;;;34.40;58.40;;;;;;4894637;29;20113;-71
2023/07/18 10:25:06;;;;;;;25.88;7.38;;;34.40;58.20;;;;;;4894344;29;20071;-71
2023/07/18 10:27:42;;;;;;;24.13;7.57;;;34.30;58.00;;;;;;4897254;29;20067;-71
2023/07/18 10:30:12;;;;;;;19.13;6.73;;;34.30;58.00;;;;;;4900199;29;20072;-71
2023/07/18 10:32:41;;;;;;;21.65;7.68;;;34.30;58.10;;;;;;4898111;29;20068;-69
2023/07/18 10:35:10;;;;;;;28.13;7.53;;;34.30;58.90;;;;;;4894743;29;20057;-69
2023/07/18 10:37:37;;;;;;;26.92;7.88;;;34.30;58.50;;;;;;4896816;29;20062;-71
2023/07/18 10:40:05;;;;;;;27.63;7.90;;;34.30;58.30;;;;;;4898300;29;20097;-71
2023/07/18 10:42:34;;;;;;;25.17;7.38;;;34.30;58.50;;;;;;4898400;29;20095;-72
2023/07/18 10:45:06;;;;;;;25.13;7.88;;;34.30;58.30;;;;;;4896332;29;20148;-74
2023/07/18 10:47:37;;;;;;;21.48;7.80;;;34.30;58.80;;;;;;4899352;29;20527;-75
2023/07/18 10:50:06;;;;;;;22.85;7.70;;;34.30;58.70;;;;;;4894048;29;20454;-71
2023/07/18 10:52:34;;;;;;;27.25;8.25;;;34.20;58.60;;;;;;4896396;29;20070;-74
2023/07/18 10:55:04;;;;;;;25.20;7.93;;;34.20;58.30;;;;;;4897913;29;20110;-71
2023/07/18 10:57:35;;;;;;;19.80;7.43;;;34.20;58.70;;;;;;4896425;29;21322;-72
2023/07/18 11:00:05;;;;;;;26.83;7.32;;;34.10;58.50;;;;;;4890446;29;20066;-73
2023/07/18 11:02:42;;;;;;;26.48;7.40;;;34.10;58.20;;;;;;4905032;29;20060;-73
2023/07/18 11:05:13;;;;;;;28.25;7.03;;;34.10;58.30;;;;;;4898578;29;20089;-70
2023/07/18 11:07:47;;;;;;;30.52;7.25;;;34.00;58.60;;;;;;4895171;29;20067;-69
2023/07/18 11:10:15;;;;;;;26.83;7.50;;;34.00;58.60;;;;;;4896881;29;20071;-71
2023/07/18 11:12:42;;;;;;;30.02;7.72;;;34.00;58.70;;;;;;4898471;29;20063;-71
2023/07/18 11:15:11;;;;;;;21.83;6.93;;;34.00;59.70;;;;;;4899516;29;20059;-70
2023/07/18 11:17:43;;;;;;;22.30;6.57;;;34.00;59.40;;;;;;4895271;29;20061;-71
2023/07/18 11:20:11;;;;;;;25.55;6.65;;;34.00;59.00;;;;;;4897853;29;20098;-71
2023/07/18 11:22:38;;;;;;;32.55;6.95;;;33.90;58.90;;;;;;4892565;29;20127;-72
2023/07/18 11:25:05;;;;;;;16.40;6.32;;;33.90;59.40;;;;;;4895698;29;20528;-71
2023/07/18 11:27:32;;;;;;;21.90;6.40;;;33.90;60.00;;;;;;4894763;29;20529;-72
2023/07/18 11:30:01;;;;;;;20.02;6.50;;;33.90;59.60;;;;;;4896190;29;20156;-73
2023/07/18 11:32:31;;;;;;;16.92;6.55;;;33.90;59.30;;;;;;4892175;29;20488;-70
2023/07/18 11:34:58;;;;;;;21.98;5.22;;;33.80;60.00;;;;;;4897275;29;20192;-72
2023/07/18 11:37:25;;;;;;;15.50;6.03;;;33.80;59.30;;;;;;4898232;29;20100;-70
2023/07/18 11:39:55;;;;;;;14.95;5.50;;;33.80;59.40;;;;;;4890460;29;20120;-73
2023/07/18 11:42:21;;;;;;;16.80;5.38;;;33.80;59.10;;;;;;4896847;29;20152;-74
2023/07/18 11:44:52;;;;;;;19.35;5.90;;;33.70;59.00;;;;;;4899935;29;20074;-72
2023/07/18 11:47:19;;;;;;;14.85;5.50;;;33.70;59.10;;;;;;4894411;29;20091;-71
2023/07/18 11:49:45;;;;;;;13.23;5.38;;;33.70;59.40;;;;;;4892384;29;20165;-70
2023/07/18 11:52:11;;;;;;;16.05;5.28;;;33.70;59.60;;;;;;4894728;29;20153;-71
2023/07/18 11:54:39;;;;;;;14.05;5.43;;;33.70;59.40;;;;;;4891596;29;20560;-71
2023/07/18 11:57:06;;;;;;;16.73;5.35;;;33.60;59.20;;;;;;4896828;29;20147;-72
2023/07/18 11:59:33;;;;;;;16.17;5.18;;;33.60;59.30;;;;;;4896578;29;20060;-71
2023/07/18 12:02:00;;;;;;;15.18;5.30;;;33.60;59.40;;;;;;4897388;29;20086;-70
2023/07/18 12:04:26;;;;;;;15.32;4.97;;;33.60;59.50;;;;;;4892251;29;20079;-72
2023/07/18 12:06:53;;;;;;;12.02;5.43;;;33.60;61.00;;;;;;4902151;29;20231;-71
2023/07/18 12:09:19;;;;;;;17.35;4.85;;;33.50;61.90;;;;;;4895495;29;20584;-70
2023/07/18 12:11:45;;;;;;;18.00;6.05;;;33.50;60.60;;;;;;4901303;29;20074;-72
2023/07/18 12:14:12;;;;;;;15.30;5.20;;;33.50;60.60;;;;;;4894716;29;20061;-71
2023/07/18 12:16:38;;;;;;;15.32;5.45;;;33.50;61.00;;;;;;4895309;29;20064;-72
2023/07/18 12:19:05;;;;;;;13.73;5.10;;;33.50;61.00;;;;;;4893994;29;20144;-73
2023/07/18 12:21:31;;;;;;;18.95;6.30;;;33.40;61.90;;;;;;4897202;29;20083;-71
2023/07/18 12:23:57;;;;;;;19.75;6.00;;;33.40;61.10;;;;;;4894927;29;20074;-71
2023/07/18 12:26:24;;;;;;;24.88;6.20;;;33.40;60.90;;;;;;4894770;29;20534;-70
2023/07/18 12:28:51;;;;;;;30.23;7.15;;;33.40;62.50;;;;;;4897824;29;20510;-72
2023/07/18 12:31:18;;;;;;;23.70;6.45;;;33.40;62.20;;;;;;4893901;29;21815;-72
2023/07/18 12:33:44;;;;;;;18.23;6.18;;;33.40;61.90;;;;;;4894539;29;20075;-71
2023/07/18 12:36:12;;;;;;;26.23;6.05;;;33.30;63.20;;;;;;4899855;29;20077;-71
2023/07/18 12:38:39;;;;;;;80.43;8.00;;;33.30;62.70;;;;;;4890122;29;20648;-71
2023/07/18 12:41:06;;;;;;;21.67;6.70;;;33.30;62.30;;;;;;4895016;29;20173;-70